Time;durP1;ratioP1;P1;durP2;ratioP2;P2;SDS_P1;SDS_P2;PMS_P1;PMS_P2;Temp;Humidity;BMP_temperature;BMP_pressure;BME280_temperature;BME280_humidity;BME280_pressure;Samples;Min_cycle;Max_cycle;Signal;HPM_P1;HPM_P2
2023/04/18 00:01:13;;;;;;;1999.90;999.90;;;8.70;99.90;;;;;;5075443;28;20467;-70
2023/04/18 00:03:39;;;;;;;1999.90;999.90;;;8.60;99.90;;;;;;5075337;28;20038;-70
2023/04/18 00:06:05;;;;;;;1999.90;999.90;;;8.60;99.90;;;;;;5075190;28;20041;-70
2023/04/18 00:08:32;;;;;;;1999.90;999.90;;;8.60;99.90;;;;;;5075274;28;20029;-70
2023/04/18 00:10:57;;;;;;;1999.90;999.90;;;8.60;99.90;;;;;;5075679;28;20025;-77
2023/04/18 00:13:23;;;;;;;1999.90;999.90;;;8.60;99.90;;;;;;5075579;28;20082;-70
2023/04/18 00:15:52;;;;;;;1999.90;999.90;;;8.60;99.90;;;;;;5057241;28;20120;-77
2023/04/18 00:18:18;;;;;;;1999.90;999.90;;;8.50;99.90;;;;;;5075249;28;20019;-70
2023/04/18 00:20:45;;;;;;;1999.90;999.90;;;8.50;99.90;;;;;;5075198;28;20115;-70
2023/04/18 00:23:12;;;;;;;1999.90;999.90;;;8.40;99.90;;;;;;5075424;28;20028;-70
2023/04/18 00:25:39;;;;;;;1999.90;999.90;;;8.40;99.90;;;;;;5074743;28;20039;-77
2023/04/18 00:28:04;;;;;;;1999.90;999.90;;;8.30;99.90;;;;;;5079324;28;20024;-70
2023/04/18 00:30:30;;;;;;;1999.90;999.90;;;8.30;99.90;;;;;;5095084;28;20154;-76
2023/04/18 00:32:55;;;;;;;1999.90;999.90;;;8.30;99.90;;;;;;5077220;28;20024;-70
2023/04/18 00:35:21;;;;;;;1999.90;999.90;;;8.30;99.90;;;;;;5095204;28;20048;-76
2023/04/18 00:37:47;;;;;;;1999.90;999.90;;;8.20;99.90;;;;;;5095324;28;20021;-70
2023/04/18 00:40:12;;;;;;;1999.90;999.90;;;8.20;99.90;;;;;;5095016;28;20032;-70
2023/04/18 00:42:38;;;;;;;1999.90;999.90;;;8.10;99.90;;;;;;5094141;28;20070;-76
2023/04/18 00:45:04;;;;;;;1999.90;999.90;;;8.10;99.90;;;;;;5074737;28;20029;-70
2023/04/18 00:47:30;;;;;;;1999.90;999.90;;;8.10;99.90;;;;;;5074908;28;20029;-70
2023/04/18 00:49:55;;;;;;;1999.90;999.90;;;8.00;99.90;;;;;;5074725;28;20090;-76
2023/04/18 00:52:23;;;;;;;1999.90;999.90;;;7.90;99.90;;;;;;5074551;28;20392;-76
2023/04/18 00:54:49;;;;;;;1999.90;999.90;;;7.90;99.90;;;;;;5074535;28;20027;-76
2023/04/18 00:57:15;;;;;;;1999.90;999.90;;;7.90;99.90;;;;;;5074939;28;20021;-70
2023/04/18 00:59:41;;;;;;;1999.90;999.90;;;7.90;99.90;;;;;;5074338;28;20021;-70
2023/04/18 01:02:07;;;;;;;1999.90;999.90;;;7.80;99.90;;;;;;5074724;28;20518;-70
2023/04/18 01:04:32;;;;;;;1999.90;999.90;;;7.80;99.90;;;;;;5074288;28;20078;-76
2023/04/18 01:06:59;;;;;;;1999.90;999.90;;;7.70;99.90;;;;;;5074153;28;20064;-76
2023/04/18 01:09:26;;;;;;;1999.90;999.90;;;7.70;99.90;;;;;;5074387;28;20021;-76
2023/04/18 01:11:51;;;;;;;1999.90;999.90;;;7.70;99.90;;;;;;5074619;28;20471;-76
2023/04/18 01:14:18;;;;;;;1999.90;999.90;;;7.60;99.90;;;;;;5074159;28;20108;-70
2023/04/18 01:16:45;;;;;;;1999.90;999.90;;;7.60;99.90;;;;;;5074057;28;20024;-76
2023/04/18 01:19:10;;;;;;;1999.90;999.90;;;7.50;99.90;;;;;;5073350;28;20019;-70
2023/04/18 01:21:36;;;;;;;1999.90;999.90;;;7.50;99.90;;;;;;5073956;28;20037;-76
2023/04/18 01:24:15;;;;;;;1999.90;999.90;;;7.50;99.90;;;;;;5074089;28;20039;-71
2023/04/18 01:26:42;;;;;;;1999.90;999.90;;;7.50;99.90;;;;;;5073636;28;20032;-70
2023/04/18 01:29:08;;;;;;;1999.90;999.90;;;7.50;99.90;;;;;;5087245;28;20035;-76
2023/04/18 01:31:35;;;;;;;1999.90;999.90;;;7.40;99.90;;;;;;5094045;28;20036;-76
2023/04/18 01:34:01;;;;;;;1999.90;999.90;;;7.40;99.90;;;;;;5093884;28;20034;-75
2023/04/18 01:36:26;;;;;;;1999.90;999.90;;;7.40;99.90;;;;;;5093877;28;20020;-70
2023/04/18 01:38:52;;;;;;;1999.90;999.90;;;7.30;99.90;;;;;;5093984;28;20035;-71
2023/04/18 01:41:18;;;;;;;1999.90;999.90;;;7.30;99.90;;;;;;5093824;28;20024;-76
2023/04/18 01:43:43;;;;;;;1999.90;999.90;;;7.30;99.90;;;;;;5084077;28;20036;-76
2023/04/18 01:46:09;;;;;;;1999.90;999.90;;;7.30;99.90;;;;;;5073536;28;20104;-76
2023/04/18 01:48:34;;;;;;;1999.90;999.90;;;7.30;99.90;;;;;;5073797;28;20127;-76
2023/04/18 01:51:00;;;;;;;1999.90;999.90;;;7.30;99.90;;;;;;5055120;28;20054;-70
2023/04/18 01:53:26;;;;;;;1999.90;999.90;;;7.30;99.90;;;;;;5073365;28;20105;-76
2023/04/18 01:55:51;;;;;;;1999.90;999.90;;;7.30;99.90;;;;;;5073503;28;20062;-76
2023/04/18 01:58:21;;;;;;;1999.90;999.90;;;7.30;99.90;;;;;;5073566;28;20029;-76
2023/04/18 02:00:49;;;;;;;1999.90;999.90;;;7.30;99.90;;;;;;5072792;28;20484;-76
2023/04/18 02:03:15;;;;;;;1999.90;999.90;;;7.30;99.90;;;;;;5073300;28;20412;-70
2023/04/18 02:05:41;;;;;;;1999.90;999.90;;;7.20;99.90;;;;;;5073238;28;20098;-70
2023/04/18 02:08:06;;;;;;;1999.90;999.90;;;7.20;99.90;;;;;;5072887;28;20037;-70
2023/04/18 02:10:32;;;;;;;1999.90;999.90;;;7.20;99.90;;;;;;5073203;28;20021;-76
2023/04/18 02:12:57;;;;;;;1999.90;999.90;;;7.20;99.90;;;;;;5073179;28;20025;-70
2023/04/18 02:15:23;;;;;;;1999.90;999.90;;;7.10;99.90;;;;;;5072893;28;20017;-70
2023/04/18 02:17:49;;;;;;;1999.90;999.90;;;7.10;99.90;;;;;;5072937;28;20094;-70
2023/04/18 02:20:15;;;;;;;1999.90;999.90;;;7.10;99.90;;;;;;5072968;28;20092;-70
2023/04/18 02:22:40;;;;;;;1999.90;999.90;;;7.10;99.90;;;;;;5073092;28;20037;-76
2023/04/18 02:25:06;;;;;;;1999.90;999.90;;;7.10;99.90;;;;;;5073061;28;20086;-69
2023/04/18 02:27:32;;;;;;;1999.90;999.90;;;7.10;99.90;;;;;;5072401;28;20105;-76
2023/04/18 02:29:58;;;;;;;1999.90;999.90;;;7.10;99.90;;;;;;5092886;28;20022;-76
2023/04/18 02:32:23;;;;;;;1999.90;999.90;;;7.10;99.90;;;;;;5093009;28;20030;-70
2023/04/18 02:34:49;;;;;;;1999.90;999.90;;;7.10;99.90;;;;;;5093123;28;20031;-76
2023/04/18 02:37:14;;;;;;;1999.90;999.90;;;7.10;99.90;;;;;;5093209;28;20031;-70
2023/04/18 02:39:40;;;;;;;1999.90;999.90;;;7.10;99.90;;;;;;5092785;28;20087;-76
2023/04/18 02:42:05;;;;;;;1999.90;999.90;;;7.20;99.90;;;;;;5093147;28;20051;-76
2023/04/18 02:44:31;;;;;;;1999.90;999.90;;;7.20;99.90;;;;;;5092598;28;20533;-70
2023/04/18 02:46:57;;;;;;;1999.90;999.90;;;7.20;99.90;;;;;;5074980;28;20032;-76
2023/04/18 02:49:22;;;;;;;1999.90;999.90;;;7.10;99.90;;;;;;5093348;28;20028;-76
2023/04/18 02:51:48;;;;;;;1999.90;999.90;;;7.20;99.90;;;;;;5092629;28;20134;-76
2023/04/18 02:54:13;;;;;;;1999.90;999.90;;;7.20;99.90;;;;;;5092845;28;20024;-76
2023/04/18 02:56:41;;;;;;;1999.90;999.90;;;7.20;99.90;;;;;;5092718;28;20471;-70
2023/04/18 02:59:07;;;;;;;1999.90;999.90;;;7.20;99.90;;;;;;5093156;28;20016;-70
2023/04/18 03:01:32;;;;;;;1999.90;999.90;;;7.20;99.90;;;;;;5092712;28;20154;-76
2023/04/18 03:03:58;;;;;;;1999.90;999.90;;;7.20;99.90;;;;;;5092885;28;20032;-76
2023/04/18 03:06:24;;;;;;;1999.90;999.90;;;7.20;99.90;;;;;;5092650;28;20039;-75
2023/04/18 03:08:50;;;;;;;1999.90;999.90;;;7.20;99.90;;;;;;5076428;28;20029;-69
2023/04/18 03:11:16;;;;;;;1999.90;999.90;;;7.20;99.90;;;;;;5072419;28;20472;-70
2023/04/18 03:13:41;;;;;;;1999.90;999.90;;;7.10;99.90;;;;;;5076239;28;20028;-76
2023/04/18 03:16:07;;;;;;;1999.90;999.90;;;7.10;99.90;;;;;;5076374;28;20107;-75
2023/04/18 03:18:33;;;;;;;1999.90;999.90;;;7.10;99.90;;;;;;5076422;28;20016;-76
2023/04/18 03:20:58;;;;;;;1999.90;999.90;;;7.10;99.90;;;;;;5076426;28;20506;-76
2023/04/18 03:23:24;;;;;;;1999.90;999.90;;;7.00;99.90;;;;;;5076643;28;20028;-70
2023/04/18 03:25:49;;;;;;;1999.90;999.90;;;7.00;99.90;;;;;;5076488;28;20029;-76
2023/04/18 03:28:15;;;;;;;1999.90;999.90;;;7.00;99.90;;;;;;5081974;28;20479;-70
2023/04/18 03:30:41;;;;;;;1999.90;999.90;;;6.90;99.90;;;;;;5096177;28;20032;-76
2023/04/18 03:33:07;;;;;;;1999.90;999.90;;;6.90;99.90;;;;;;5096678;28;20025;-76
2023/04/18 03:35:33;;;;;;;1999.90;999.90;;;6.90;99.90;;;;;;5096255;28;20502;-70
2023/04/18 03:37:59;;;;;;;1999.90;999.90;;;6.90;99.90;;;;;;5096295;28;20020;-76
2023/04/18 03:40:24;;;;;;;1999.90;999.90;;;6.90;99.90;;;;;;5096144;28;20028;-76
2023/04/18 03:42:50;;;;;;;1999.90;999.90;;;7.00;99.90;;;;;;5093764;28;20156;-75
2023/04/18 03:45:16;;;;;;;1999.90;999.90;;;7.00;99.90;;;;;;5076183;28;20464;-76
2023/04/18 03:47:41;;;;;;;1999.90;999.90;;;7.00;99.90;;;;;;5075738;28;20029;-75
2023/04/18 03:50:07;;;;;;;1999.90;999.90;;;7.10;99.90;;;;;;5075477;28;20471;-69
2023/04/18 03:52:33;;;;;;;1999.90;999.90;;;7.00;99.90;;;;;;5075785;28;20096;-76
2023/04/18 03:54:59;;;;;;;1999.90;999.90;;;7.00;99.90;;;;;;5057736;28;20030;-70
2023/04/18 03:57:25;;;;;;;1999.90;999.90;;;7.00;99.90;;;;;;5075825;28;20100;-76
2023/04/18 03:59:50;;;;;;;1999.90;999.90;;;7.00;99.90;;;;;;5075667;28;20066;-69
2023/04/18 04:02:16;;;;;;;1999.90;999.90;;;7.00;99.90;;;;;;5075854;28;20391;-70
2023/04/18 04:04:41;;;;;;;1999.90;999.90;;;7.00;99.90;;;;;;5075665;28;20099;-76
2023/04/18 04:07:07;;;;;;;1999.90;999.90;;;7.00;99.90;;;;;;5075204;28;20024;-70
2023/04/18 04:09:33;;;;;;;1999.90;999.90;;;7.00;99.90;;;;;;5075635;28;20475;-76
2023/04/18 04:11:58;;;;;;;1999.90;999.90;;;7.00;99.90;;;;;;5075353;28;20024;-76
2023/04/18 04:14:24;;;;;;;1999.90;999.90;;;7.00;99.90;;;;;;5075302;28;20027;-70
2023/04/18 04:16:50;;;;;;;1999.90;999.90;;;7.00;99.90;;;;;;5075174;28;20066;-70
2023/04/18 04:19:16;;;;;;;1999.90;999.90;;;7.00;99.90;;;;;;5074589;28;20024;-75
2023/04/18 04:21:41;;;;;;;1999.90;999.90;;;7.00;99.90;;;;;;5075635;28;20078;-76
2023/04/18 04:24:08;;;;;;;1999.90;999.90;;;7.00;99.90;;;;;;5074629;28;20036;-75
2023/04/18 04:26:34;;;;;;;1999.90;999.90;;;6.90;99.90;;;;;;5075044;28;20033;-70
2023/04/18 04:29:01;;;;;;;1999.90;999.90;;;6.90;99.90;;;;;;5087002;28;20386;-69
2023/04/18 04:31:27;;;;;;;1999.90;999.90;;;6.90;99.90;;;;;;5086523;28;20103;-76
2023/04/18 04:33:53;;;;;;;1999.90;999.90;;;6.90;99.90;;;;;;5073952;28;20047;-76
2023/04/18 04:36:19;;;;;;;1999.90;999.90;;;6.90;99.90;;;;;;5074725;28;20056;-75
2023/04/18 04:38:44;;;;;;;1999.90;999.90;;;6.90;99.90;;;;;;5091132;28;20016;-70
2023/04/18 04:41:10;;;;;;;1999.90;999.90;;;6.80;99.90;;;;;;5095214;28;20031;-70
2023/04/18 04:43:36;;;;;;;1999.90;999.90;;;6.80;99.90;;;;;;5086075;28;20024;-70
2023/04/18 04:46:03;;;;;;;1999.90;999.90;;;6.80;99.90;;;;;;5074566;28;20497;-76
2023/04/18 04:48:28;;;;;;;1999.90;999.90;;;6.80;99.90;;;;;;5056429;28;20422;-76
2023/04/18 04:50:56;;;;;;;1999.90;999.90;;;6.80;99.90;;;;;;5074477;28;20040;-76
2023/04/18 04:53:23;;;;;;;1999.90;999.90;;;6.80;99.90;;;;;;5074369;28;20031;-70
2023/04/18 04:55:50;;;;;;;1999.90;999.90;;;6.90;99.90;;;;;;5074389;28;20056;-70
2023/04/18 04:58:16;;;;;;;1999.90;999.90;;;6.90;99.90;;;;;;5074166;28;20108;-76
2023/04/18 05:00:42;;;;;;;1999.90;999.90;;;6.90;99.90;;;;;;5074360;28;20099;-76
2023/04/18 05:03:09;;;;;;;1999.90;999.90;;;6.90;99.90;;;;;;5074380;28;20502;-76
2023/04/18 05:05:35;;;;;;;1999.90;999.90;;;7.00;99.90;;;;;;5074360;28;20017;-71
2023/04/18 05:08:02;;;;;;;1999.90;999.90;;;7.00;99.90;;;;;;5074365;28;20502;-70
2023/04/18 05:10:27;;;;;;;1999.90;999.90;;;7.00;99.90;;;;;;5073875;28;20108;-76
2023/04/18 05:12:53;;;;;;;1999.90;999.90;;;7.00;99.90;;;;;;5074072;28;20100;-76
2023/04/18 05:15:19;;;;;;;1999.90;999.90;;;7.00;99.90;;;;;;5074423;28;20089;-70
2023/04/18 05:17:45;;;;;;;1999.90;999.90;;;7.00;99.90;;;;;;5073552;28;20028;-70
2023/04/18 05:20:10;;;;;;;1999.90;999.90;;;7.00;99.90;;;;;;5073705;28;20025;-70
2023/04/18 05:22:37;;;;;;;1999.90;999.90;;;7.00;99.90;;;;;;5073394;28;20086;-70
2023/04/18 05:25:02;;;;;;;1999.90;999.90;;;7.00;99.90;;;;;;5073866;28;20024;-76
2023/04/18 05:27:28;;;;;;;1999.90;999.90;;;7.00;99.90;;;;;;5073739;28;20025;-76
2023/04/18 05:29:54;;;;;;;1999.90;999.90;;;7.00;99.90;;;;;;5072909;28;20028;-76
2023/04/18 05:32:20;;;;;;;1999.90;999.90;;;7.00;99.90;;;;;;5073197;28;20025;-70
2023/04/18 05:34:46;;;;;;;1999.90;999.90;;;7.10;99.90;;;;;;5072476;28;20017;-70
2023/04/18 05:37:11;;;;;;;1999.90;999.90;;;7.20;99.90;;;;;;5073690;28;20100;-76
2023/04/18 05:39:37;;;;;;;1999.90;999.90;;;7.20;99.90;;;;;;5073130;28;20400;-75
2023/04/18 05:42:03;;;;;;;1999.90;999.90;;;7.20;99.90;;;;;;5073149;28;20032;-70
2023/04/18 05:44:29;;;;;;;1999.90;999.90;;;7.20;99.90;;;;;;5072975;28;20032;-70
2023/04/18 05:46:55;;;;;;;1999.90;999.90;;;7.30;99.90;;;;;;5072785;28;20110;-70
2023/04/18 05:49:20;;;;;;;1999.90;999.90;;;7.30;99.90;;;;;;5073488;28;20060;-76
2023/04/18 05:51:48;;;;;;;1999.90;999.90;;;7.40;99.90;;;;;;5072784;28;20105;-70
2023/04/18 05:54:14;;;;;;;1999.90;999.90;;;7.40;99.90;;;;;;5076150;28;20012;-76
2023/04/18 05:56:40;;;;;;;1999.90;999.90;;;7.40;99.90;;;;;;5074341;28;20021;-76
2023/04/18 05:59:06;;;;;;;1999.90;999.90;;;7.40;99.90;;;;;;5074266;28;20031;-70
2023/04/18 06:01:32;;;;;;;1999.90;999.90;;;7.50;99.90;;;;;;5077606;28;20028;-70
2023/04/18 06:03:58;;;;;;;1999.90;999.90;;;7.60;99.90;;;;;;5071709;28;20119;-75
2023/04/18 06:06:23;;;;;;;1999.90;999.90;;;7.60;99.90;;;;;;5072196;28;20095;-76
2023/04/18 06:08:49;;;;;;;1999.90;999.90;;;7.70;99.90;;;;;;5070206;28;20029;-76
2023/04/18 06:11:14;;;;;;;1999.90;999.90;;;7.70;99.90;;;;;;5069400;28;20025;-76
2023/04/18 06:13:40;;;;;;;1999.90;999.90;;;7.70;99.90;;;;;;5071881;28;20021;-76
2023/04/18 06:16:07;;;;;;;1999.90;999.90;;;7.70;99.90;;;;;;5071303;28;20057;-75
2023/04/18 06:18:32;;;;;;;1999.90;999.90;;;7.60;99.90;;;;;;5071343;28;20024;-70
2023/04/18 06:20:58;;;;;;;1999.90;999.90;;;7.60;99.90;;;;;;5072153;28;20024;-76
2023/04/18 06:23:24;;;;;;;1999.90;999.90;;;7.60;99.90;;;;;;5076047;28;20441;-70
2023/04/18 06:25:50;;;;;;;1999.90;999.90;;;7.70;99.90;;;;;;5070205;28;20028;-70
2023/04/18 06:28:15;;;;;;;1999.90;999.90;;;7.70;99.90;;;;;;5072501;28;20024;-76
2023/04/18 06:30:41;;;;;;;1999.90;999.90;;;7.80;99.90;;;;;;5070858;28;20032;-76
2023/04/18 06:33:10;;;;;;;1999.90;999.90;;;7.90;99.90;;;;;;5070673;28;20078;-71
2023/04/18 06:35:36;;;;;;;1999.90;999.90;;;8.00;99.90;;;;;;5072494;28;20020;-76
2023/04/18 06:38:02;;;;;;;1999.90;999.90;;;8.00;99.90;;;;;;5070953;28;20070;-71
2023/04/18 06:40:27;;;;;;;1999.90;999.90;;;8.10;99.90;;;;;;5068418;28;20045;-70
2023/04/18 06:42:53;;;;;;;1999.90;999.90;;;8.20;99.90;;;;;;5064706;28;20044;-76
2023/04/18 06:45:19;;;;;;;1999.90;999.90;;;8.40;99.90;;;;;;5050433;28;20088;-75
2023/04/18 06:47:46;;;;;;;1999.90;999.90;;;8.50;99.90;;;;;;5062537;28;20028;-71
2023/04/18 06:50:13;;;;;;;1999.90;999.90;;;8.60;99.90;;;;;;5070882;28;20036;-71
2023/04/18 06:52:43;;;;;;;1999.90;999.90;;;8.80;99.90;;;;;;5066886;28;20502;-70
2023/04/18 06:55:09;;;;;;;1999.90;999.90;;;8.90;99.90;;;;;;5071415;28;20025;-74
2023/04/18 06:57:39;;;;;;;1999.90;999.90;;;8.90;99.90;;;;;;5072002;28;20090;-69
2023/04/18 07:00:05;;;;;;;1999.90;999.90;;;9.10;99.90;;;;;;5070311;28;20046;-75
2023/04/18 07:02:31;;;;;;;1999.90;999.90;;;9.20;99.90;;;;;;5070013;28;20025;-68
2023/04/18 07:04:57;;;;;;;1999.90;999.90;;;9.30;99.90;;;;;;5070789;28;20171;-68
2023/04/18 07:07:22;;;;;;;1999.90;999.90;;;9.40;99.90;;;;;;5070144;28;20407;-76
2023/04/18 07:09:48;;;;;;;1999.90;999.90;;;9.60;99.90;;;;;;5069901;28;20112;-75
2023/04/18 07:12:15;;;;;;;1999.90;999.90;;;9.70;99.90;;;;;;5065639;28;20040;-74
2023/04/18 07:14:40;;;;;;;1999.90;999.90;;;9.70;99.90;;;;;;5060969;28;20473;-69
2023/04/18 07:17:06;;;;;;;1999.90;999.90;;;9.90;99.90;;;;;;5071061;28;20048;-69
2023/04/18 07:19:32;;;;;;;1999.90;999.90;;;10.00;99.90;;;;;;5066281;28;20067;-76
2023/04/18 07:21:57;;;;;;;1999.90;999.90;;;10.10;99.90;;;;;;5061631;28;20025;-74
2023/04/18 07:24:23;;;;;;;1999.90;999.90;;;10.20;99.90;;;;;;5073206;28;20066;-75
2023/04/18 07:26:50;;;;;;;1999.90;999.90;;;10.40;99.90;;;;;;5075189;28;20043;-69
2023/04/18 07:29:17;;;;;;;1999.90;999.90;;;10.50;99.90;;;;;;5066126;28;20029;-69
2023/04/18 07:31:42;;;;;;;1999.90;999.90;;;10.60;99.90;;;;;;5063449;28;20426;-70
2023/04/18 07:34:08;;;;;;;1999.90;999.90;;;10.70;99.90;;;;;;5068735;28;20025;-69
2023/04/18 07:36:35;;;;;;;1999.90;999.90;;;10.80;99.90;;;;;;5069724;28;20029;-75
2023/04/18 07:39:00;;;;;;;1999.90;999.90;;;10.90;99.90;;;;;;5060931;28;20036;-76
2023/04/18 07:41:26;;;;;;;1999.90;999.90;;;11.00;99.90;;;;;;5068348;28;20036;-75
2023/04/18 07:43:51;;;;;;;1999.90;999.90;;;11.20;99.90;;;;;;5067498;28;20101;-69
2023/04/18 07:46:17;;;;;;;1999.90;999.90;;;11.40;99.90;;;;;;5069225;28;20041;-76
2023/04/18 07:48:43;;;;;;;1999.90;999.90;;;11.60;99.90;;;;;;5065948;28;20025;-69
2023/04/18 07:51:10;;;;;;;1999.90;999.90;;;11.80;99.90;;;;;;5060583;28;20059;-75
2023/04/18 07:53:36;;;;;;;1999.90;999.90;;;12.00;99.90;;;;;;5077171;28;20059;-75
2023/04/18 07:56:02;;;;;;;1999.90;999.90;;;12.20;99.90;;;;;;5076137;28;20024;-71
2023/04/18 07:58:28;;;;;;;1999.90;999.90;;;12.40;99.90;;;;;;5070198;28;20025;-69
2023/04/18 08:00:53;;;;;;;1999.90;999.90;;;12.70;99.90;;;;;;5073141;28;20063;-74
2023/04/18 08:03:19;;;;;;;1999.90;999.90;;;12.80;99.90;;;;;;5072603;28;20098;-69
2023/04/18 08:05:45;;;;;;;1999.90;999.90;;;13.60;99.90;;;;;;5073968;28;20503;-74
2023/04/18 08:08:12;;;;;;;1999.90;999.90;;;14.90;99.90;;;;;;5073045;28;20499;-69
2023/04/18 08:10:38;;;;;;;1999.90;999.90;;;14.90;99.90;;;;;;5053751;28;20047;-70
2023/04/18 08:13:04;;;;;;;1999.90;999.90;;;14.20;99.90;;;;;;5066784;28;20033;-77
2023/04/18 08:15:31;;;;;;;1999.90;999.90;;;14.80;99.90;;;;;;5062986;28;20025;-77
2023/04/18 08:17:57;;;;;;;1999.90;999.90;;;16.30;99.90;;;;;;5066741;28;20021;-70
2023/04/18 08:20:23;;;;;;;1999.90;999.90;;;18.90;99.90;;;;;;5073395;28;20032;-71
2023/04/18 08:22:49;;;;;;;1999.90;999.90;;;18.30;99.90;;;;;;5062106;28;20066;-71
2023/04/18 08:25:15;;;;;;;1999.90;999.90;;;18.80;99.90;;;;;;5060861;28;20364;-75
2023/04/18 08:27:42;;;;;;;1999.90;999.90;;;18.30;99.90;;;;;;5060777;28;20028;-70
2023/04/18 08:30:08;;;;;;;1999.90;999.90;;;19.30;99.90;;;;;;5071943;28;20128;-77
2023/04/18 08:32:35;;;;;;;1999.90;999.90;;;20.50;99.90;;;;;;5070333;28;20513;-70
2023/04/18 08:35:02;;;;;;;1999.90;999.90;;;21.90;99.90;;;;;;5066241;28;20060;-71
2023/04/18 08:37:28;;;;;;;1999.90;999.90;;;22.70;99.90;;;;;;5072991;28;20094;-70
2023/04/18 08:39:53;;;;;;;1999.90;999.90;;;22.80;99.90;;;;;;5076693;28;20024;-77
2023/04/18 08:42:20;;;;;;;1999.90;999.90;;;23.00;99.90;;;;;;5068345;28;20523;-73
2023/04/18 08:44:46;;;;;;;1999.90;999.90;;;22.50;99.90;;;;;;5076500;28;20039;-77
2023/04/18 08:47:11;;;;;;;1999.90;999.90;;;23.70;99.90;;;;;;5078731;28;20024;-72
2023/04/18 08:49:38;;;;;;;1999.90;999.90;;;23.90;99.70;;;;;;5075798;28;20111;-79
2023/04/18 08:52:10;;;;;;;1999.90;999.90;;;23.60;99.10;;;;;;5066204;28;20033;-72
2023/04/18 08:54:37;;;;;;;1999.90;999.90;;;23.40;99.40;;;;;;5073204;28;20443;-78
2023/04/18 08:57:07;;;;;;;1999.90;999.90;;;22.20;99.90;;;;;;5073407;28;20496;-78
2023/04/18 08:59:34;;;;;;;1999.90;999.90;;;22.30;99.90;;;;;;5075244;28;20450;-71
2023/04/18 09:02:02;;;;;;;1999.90;999.90;;;21.80;99.90;;;;;;5067203;28;20024;-71
2023/04/18 09:04:44;;;;;;;1999.90;999.90;;;22.40;99.90;;;;;;5072421;28;20039;-72
2023/04/18 09:07:15;;;;;;;1999.90;999.90;;;22.80;99.90;;;;;;5072651;28;20080;-73
2023/04/18 09:09:52;;;;;;;1999.90;999.90;;;22.70;99.90;;;;;;5072342;28;20589;-71
2023/04/18 09:12:21;;;;;;;1999.90;999.90;;;23.30;99.30;;;;;;5072157;28;20059;-71
2023/04/18 09:14:49;;;;;;;1999.90;999.90;;;23.70;99.50;;;;;;5071145;28;20024;-72
2023/04/18 09:17:30;;;;;;;1999.90;999.90;;;23.60;98.50;;;;;;5052987;28;20384;-71
2023/04/18 09:19:57;;;;;;;1999.90;999.90;;;21.80;99.90;;;;;;5066056;28;20032;-75
2023/04/18 09:22:23;;;;;;;1999.90;999.90;;;20.70;99.90;;;;;;5065487;28;20020;-78
2023/04/18 09:24:52;;;;;;;1999.90;999.90;;;21.40;99.90;;;;;;5072419;28;20464;-71
2023/04/18 09:27:21;;;;;;;1999.90;999.90;;;21.90;99.90;;;;;;5072365;28;20402;-71
2023/04/18 09:29:50;;;;;;;1999.90;999.90;;;22.70;99.90;;;;;;5074582;28;20031;-77
2023/04/18 09:32:25;;;;;;;1999.90;999.90;;;22.90;99.20;;;;;;5059628;28;20074;-71
2023/04/18 09:34:53;;;;;;;1999.90;999.90;;;22.30;99.60;;;;;;5092546;28;20077;-79
2023/04/18 09:37:19;;;;;;;1999.90;999.90;;;21.70;99.90;;;;;;5074947;28;20024;-78
2023/04/18 09:39:45;;;;;;;1999.90;999.90;;;22.70;99.60;;;;;;5071000;28;20760;-72
2023/04/18 09:42:12;;;;;;;1999.90;999.90;;;23.20;99.00;;;;;;5073259;28;20111;-71
2023/04/18 09:44:58;;;;;;;1999.90;999.90;;;23.40;98.70;;;;;;5075916;28;20502;-78
2023/04/18 09:47:25;;;;;;;1999.90;999.90;;;24.00;98.00;;;;;;5068724;28;20024;-72
2023/04/18 09:49:51;;;;;;;1999.90;999.90;;;24.20;97.30;;;;;;5067618;28;20560;-71
2023/04/18 09:52:18;;;;;;;1999.90;999.90;;;24.10;97.50;;;;;;5065568;28;20028;-71
2023/04/18 09:54:49;;;;;;;1999.90;999.90;;;24.30;97.50;;;;;;5072176;28;20142;-71
2023/04/18 09:57:16;;;;;;;1999.90;999.90;;;24.60;96.60;;;;;;5072176;28;20027;-71
2023/04/18 09:59:49;;;;;;;1999.90;999.90;;;24.10;97.10;;;;;;5072194;28;20044;-72
2023/04/18 10:02:21;;;;;;;1999.90;999.90;;;24.00;97.40;;;;;;5067695;28;20034;-77
2023/04/18 10:04:49;;;;;;;1999.90;999.90;;;24.70;97.40;;;;;;5068343;28;20020;-71
2023/04/18 10:07:16;;;;;;;1999.90;999.90;;;24.60;97.70;;;;;;5067486;28;20028;-71
2023/04/18 10:09:46;;;;;;;1999.90;999.90;;;24.50;97.40;;;;;;5071459;28;20055;-77
2023/04/18 10:12:13;;;;;;;1999.90;999.90;;;22.70;98.50;;;;;;5069947;28;20104;-70
2023/04/18 10:14:44;;;;;;;1999.90;999.90;;;22.70;99.90;;;;;;5068907;28;20465;-77
2023/04/18 10:17:10;;;;;;;1999.90;999.90;;;23.10;98.40;;;;;;5067503;28;20028;-77
2023/04/18 10:19:36;;;;;;;1999.90;999.90;;;23.80;98.80;;;;;;5066007;28;20438;-72
2023/04/18 10:22:02;;;;;;;1999.90;999.90;;;24.30;97.00;;;;;;5064276;28;20529;-77
2023/04/18 10:24:48;;;;;;;1999.90;999.90;;;23.80;97.50;;;;;;5049680;28;20052;-77
2023/04/18 10:27:16;;;;;;;1999.90;999.90;;;22.90;98.00;;;;;;5070299;28;20036;-77
2023/04/18 10:29:53;;;;;;;1999.90;999.90;;;22.30;99.60;;;;;;5074984;28;20024;-72
2023/04/18 10:32:22;;;;;;;1999.90;999.90;;;22.70;98.50;;;;;;5070463;28;20033;-71
2023/04/18 10:34:53;;;;;;;1999.90;999.90;;;21.80;98.50;;;;;;5069318;28;20033;-71
2023/04/18 10:37:18;;;;;;;1999.90;999.90;;;21.60;99.90;;;;;;5067879;28;20394;-77
2023/04/18 10:40:01;;;;;;;1999.90;999.90;;;21.40;99.80;;;;;;5063644;28;20032;-78
2023/04/18 10:42:45;;;;;;;;;;;21.20;99.90;;;;;;5072582;28;20382;-77
2023/04/18 10:45:21;;;;;;;1999.90;999.90;;;20.80;99.90;;;;;;5067891;28;19908;-71
2023/04/18 10:47:47;;;;;;;1999.90;999.90;;;20.30;99.90;;;;;;5064021;28;20036;-74
2023/04/18 10:50:14;;;;;;;1999.90;999.90;;;20.10;99.90;;;;;;5067647;28;20033;-71
2023/04/18 10:52:40;;;;;;;1999.90;999.90;;;20.60;99.90;;;;;;5068411;28;20428;-75
2023/04/18 10:55:15;;;;;;;1999.90;999.90;;;20.10;99.90;;;;;;5067831;28;20515;-77
2023/04/18 10:57:50;;;;;;;1999.90;999.90;;;19.80;99.90;;;;;;5069753;28;20024;-71
2023/04/18 11:00:20;;;;;;;1999.90;999.90;;;19.60;99.90;;;;;;5066205;28;20028;-71
2023/04/18 11:02:54;;;;;;;1999.90;999.90;;;19.20;99.90;;;;;;5059932;28;20102;-76
2023/04/18 11:05:25;;;;;;;1999.90;999.90;;;19.10;99.90;;;;;;5058525;28;20151;-71
2023/04/18 11:07:51;;;;;;;1999.90;999.90;;;18.80;99.90;;;;;;5064469;28;20025;-76
2023/04/18 11:10:23;;;;;;;1999.90;999.90;;;19.30;99.90;;;;;;5066374;28;20029;-71
2023/04/18 11:12:49;;;;;;;1999.90;999.90;;;20.00;99.90;;;;;;5066784;28;20021;-71
2023/04/18 11:15:21;;;;;;;1999.90;999.90;;;20.60;99.90;;;;;;5064355;28;20032;-76
2023/04/18 11:18:01;;;;;;;1999.90;999.90;;;20.90;99.90;;;;;;5058723;28;20021;-77
2023/04/18 11:20:28;;;;;;;1999.90;999.90;;;20.40;99.90;;;;;;5056088;28;20029;-74
2023/04/18 11:22:59;;;;;;;1999.90;999.90;;;20.30;99.90;;;;;;5059026;28;20031;-78
2023/04/18 11:25:27;;;;;;;1999.90;999.90;;;20.70;99.90;;;;;;5058019;28;20109;-71
2023/04/18 11:27:56;;;;;;;1999.90;999.90;;;20.50;99.90;;;;;;5063311;28;20024;-79
2023/04/18 11:30:22;;;;;;;1999.90;999.90;;;20.90;99.80;;;;;;5063069;28;20442;-77
2023/04/18 11:32:47;;;;;;;1999.90;999.90;;;21.10;99.90;;;;;;5058029;28;20020;-78
2023/04/18 11:35:14;;;;;;;1999.90;999.90;;;21.20;98.90;;;;;;5066843;28;20032;-72
2023/04/18 11:37:42;;;;;;;1999.90;999.90;;;21.60;99.30;;;;;;5055790;28;20021;-79
2023/04/18 11:40:08;;;;;;;1999.90;999.90;;;21.20;97.80;;;;;;5071675;28;20407;-77
2023/04/18 11:42:36;;;;;;;1999.90;999.90;;;20.80;97.30;;;;;;5074714;28;20035;-78
2023/04/18 11:45:02;;;;;;;1999.90;999.90;;;20.60;98.60;;;;;;5065078;28;20123;-72
2023/04/18 11:47:30;;;;;;;1999.90;999.90;;;20.60;98.40;;;;;;5066237;28;20029;-70
2023/04/18 11:50:00;;;;;;;1999.90;999.90;;;21.00;99.50;;;;;;5072101;28;20120;-71
2023/04/18 11:52:27;;;;;;;1999.90;999.90;;;20.90;98.30;;;;;;5066426;28;20450;-72
2023/04/18 11:54:54;;;;;;;1999.90;999.90;;;20.50;99.50;;;;;;5064255;28;20029;-72
2023/04/18 11:57:20;;;;;;;1999.90;999.90;;;19.50;99.60;;;;;;5036428;28;20033;-78
2023/04/18 11:59:53;;;;;;;1999.90;999.90;;;18.70;99.70;;;;;;5078599;28;20065;-80
2023/04/18 12:02:20;;;;;;;1999.90;999.90;;;19.30;99.90;;;;;;5071075;28;20043;-80
2023/04/18 12:04:59;;;;;;;1999.90;999.90;;;19.40;99.90;;;;;;5069111;28;20429;-73